sensor_id;sensor_type;location;lat;lon;timestamp;P1;durP1;ratioP1;P2;durP2;ratioP2
16967;SDS011;64862;54.398;10.126;2023-04-25T00:02:57;20.88;;;3.08;;
16967;SDS011;64862;54.398;10.126;2023-04-25T00:13:02;17.08;;;2.90;;
16967;SDS011;64862;54.398;10.126;2023-04-25T00:23:04;16.77;;;3.15;;
16967;SDS011;64862;54.398;10.126;2023-04-25T00:33:09;23.27;;;3.13;;
16967;SDS011;64862;54.398;10.126;2023-04-25T00:43:11;26.05;;;3.75;;
16967;SDS011;64862;54.398;10.126;2023-04-25T00:53:16;20.40;;;3.80;;
16967;SDS011;64862;54.398;10.126;2023-04-25T01:03:18;22.80;;;3.80;;
16967;SDS011;64862;54.398;10.126;2023-04-25T01:13:23;21.58;;;3.22;;
16967;SDS011;64862;54.398;10.126;2023-04-25T01:23:26;23.27;;;4.15;;
16967;SDS011;64862;54.398;10.126;2023-04-25T01:33:29;24.45;;;3.88;;
16967;SDS011;64862;54.398;10.126;2023-04-25T01:43:34;18.38;;;3.30;;
16967;SDS011;64862;54.398;10.126;2023-04-25T01:53:36;25.13;;;3.50;;
16967;SDS011;64862;54.398;10.126;2023-04-25T02:03:41;15.88;;;3.28;;
16967;SDS011;64862;54.398;10.126;2023-04-25T02:13:53;22.00;;;2.85;;
16967;SDS011;64862;54.398;10.126;2023-04-25T02:24:32;24.65;;;3.60;;
16967;SDS011;64862;54.398;10.126;2023-04-25T02:34:35;18.10;;;3.10;;
16967;SDS011;64862;54.398;10.126;2023-04-25T02:44:39;27.70;;;3.85;;
16967;SDS011;64862;54.398;10.126;2023-04-25T02:54:41;24.70;;;4.53;;
16967;SDS011;64862;54.398;10.126;2023-04-25T03:04:45;30.60;;;4.40;;
16967;SDS011;64862;54.398;10.126;2023-04-25T03:48:51;19.58;;;3.47;;
16967;SDS011;64862;54.398;10.126;2023-04-25T03:58:58;22.73;;;3.53;;
16967;SDS011;64862;54.398;10.126;2023-04-25T04:09:04;21.88;;;3.92;;
16967;SDS011;64862;54.398;10.126;2023-04-25T04:19:12;27.40;;;3.75;;
16967;SDS011;64862;54.398;10.126;2023-04-25T04:29:22;15.95;;;3.28;;
16967;SDS011;64862;54.398;10.126;2023-04-25T04:39:53;28.65;;;3.67;;
16967;SDS011;64862;54.398;10.126;2023-04-25T04:50:28;16.48;;;2.67;;
16967;SDS011;64862;54.398;10.126;2023-04-25T05:00:52;16.58;;;2.75;;
16967;SDS011;64862;54.398;10.126;2023-04-25T05:11:04;23.40;;;3.40;;
16967;SDS011;64862;54.398;10.126;2023-04-25T05:21:23;28.73;;;3.45;;
16967;SDS011;64862;54.398;10.126;2023-04-25T05:31:56;20.80;;;3.25;;
16967;SDS011;64862;54.398;10.126;2023-04-25T05:41:58;14.15;;;2.95;;
16967;SDS011;64862;54.398;10.126;2023-04-25T05:52:22;21.00;;;3.03;;
16967;SDS011;64862;54.398;10.126;2023-04-25T06:02:44;14.80;;;2.63;;
16967;SDS011;64862;54.398;10.126;2023-04-25T06:12:50;20.52;;;3.25;;
16967;SDS011;64862;54.398;10.126;2023-04-25T06:22:54;17.13;;;2.70;;
16967;SDS011;64862;54.398;10.126;2023-04-25T06:33:26;22.42;;;3.10;;
16967;SDS011;64862;54.398;10.126;2023-04-25T06:43:30;17.05;;;2.70;;
16967;SDS011;64862;54.398;10.126;2023-04-25T07:03:48;18.85;;;2.90;;
16967;SDS011;64862;54.398;10.126;2023-04-25T07:13:55;16.30;;;2.72;;
16967;SDS011;64862;54.398;10.126;2023-04-25T07:23:57;16.75;;;2.53;;
16967;SDS011;64862;54.398;10.126;2023-04-25T07:34:06;19.47;;;2.93;;
16967;SDS011;64862;54.398;10.126;2023-04-25T07:44:12;19.08;;;2.95;;
16967;SDS011;64862;54.398;10.126;2023-04-25T07:54:16;21.05;;;2.90;;
16967;SDS011;64862;54.398;10.126;2023-04-25T08:04:25;17.83;;;2.80;;
16967;SDS011;64862;54.398;10.126;2023-04-25T08:14:39;16.15;;;2.60;;
16967;SDS011;64862;54.398;10.126;2023-04-25T08:24:41;15.40;;;2.22;;
16967;SDS011;64862;54.398;10.126;2023-04-25T08:34:47;13.65;;;2.33;;
16967;SDS011;64862;54.398;10.126;2023-04-25T08:44:54;21.02;;;3.10;;
16967;SDS011;64862;54.398;10.126;2023-04-25T08:55:04;14.93;;;2.60;;
16967;SDS011;64862;54.398;10.126;2023-04-25T09:05:09;18.25;;;2.45;;
16967;SDS011;64862;54.398;10.126;2023-04-25T09:15:21;17.63;;;2.13;;
16967;SDS011;64862;54.398;10.126;2023-04-25T09:25:44;14.25;;;1.85;;
16967;SDS011;64862;54.398;10.126;2023-04-25T09:35:50;13.25;;;2.00;;
16967;SDS011;64862;54.398;10.126;2023-04-25T09:46:15;19.10;;;2.85;;
16967;SDS011;64862;54.398;10.126;2023-04-25T09:56:25;18.23;;;2.30;;
16967;SDS011;64862;54.398;10.126;2023-04-25T10:06:36;11.57;;;2.00;;
16967;SDS011;64862;54.398;10.126;2023-04-25T10:16:41;14.05;;;1.75;;
16967;SDS011;64862;54.398;10.126;2023-04-25T10:26:44;12.05;;;2.28;;
16967;SDS011;64862;54.398;10.126;2023-04-25T10:36:52;10.27;;;2.22;;
16967;SDS011;64862;54.398;10.126;2023-04-25T10:46:54;12.27;;;2.05;;
16967;SDS011;64862;54.398;10.126;2023-04-25T10:56:59;10.50;;;2.13;;
16967;SDS011;64862;54.398;10.126;2023-04-25T11:07:07;13.15;;;2.13;;
16967;SDS011;64862;54.398;10.126;2023-04-25T11:17:16;7.13;;;1.40;;
16967;SDS011;64862;54.398;10.126;2023-04-25T11:27:19;10.38;;;1.23;;
16967;SDS011;64862;54.398;10.126;2023-04-25T11:37:23;9.73;;;1.67;;
16967;SDS011;64862;54.398;10.126;2023-04-25T11:47:29;14.00;;;1.83;;
16967;SDS011;64862;54.398;10.126;2023-04-25T12:07:35;7.88;;;1.50;;
16967;SDS011;64862;54.398;10.126;2023-04-25T12:17:39;13.35;;;2.10;;
16967;SDS011;64862;54.398;10.126;2023-04-25T12:27:42;14.73;;;2.47;;
16967;SDS011;64862;54.398;10.126;2023-04-25T12:37:46;14.55;;;2.10;;
16967;SDS011;64862;54.398;10.126;2023-04-25T12:47:48;15.27;;;2.20;;
16967;SDS011;64862;54.398;10.126;2023-04-25T12:57:52;7.53;;;1.38;;
16967;SDS011;64862;54.398;10.126;2023-04-25T13:07:55;10.43;;;1.60;;
16967;SDS011;64862;54.398;10.126;2023-04-25T13:17:58;14.60;;;1.88;;
16967;SDS011;64862;54.398;10.126;2023-04-25T13:28:03;10.02;;;1.80;;
16967;SDS011;64862;54.398;10.126;2023-04-25T13:38:07;18.67;;;2.03;;
16967;SDS011;64862;54.398;10.126;2023-04-25T13:48:09;15.10;;;1.90;;
16967;SDS011;64862;54.398;10.126;2023-04-25T13:58:13;14.38;;;2.13;;
16967;SDS011;64862;54.398;10.126;2023-04-25T14:08:15;11.43;;;1.70;;
16967;SDS011;64862;54.398;10.126;2023-04-25T14:18:19;11.13;;;1.73;;
16967;SDS011;64862;54.398;10.126;2023-04-25T14:28:21;11.27;;;1.98;;
16967;SDS011;64862;54.398;10.126;2023-04-25T14:38:24;12.85;;;1.90;;
16967;SDS011;64862;54.398;10.126;2023-04-25T14:48:27;13.05;;;1.80;;
16967;SDS011;64862;54.398;10.126;2023-04-25T14:58:31;13.35;;;2.17;;
16967;SDS011;64862;54.398;10.126;2023-04-25T15:08:33;15.60;;;2.20;;
16967;SDS011;64862;54.398;10.126;2023-04-25T15:18:37;17.63;;;2.10;;
16967;SDS011;64862;54.398;10.126;2023-04-25T15:28:39;11.25;;;2.00;;
16967;SDS011;64862;54.398;10.126;2023-04-25T15:38:43;17.85;;;2.45;;
16967;SDS011;64862;54.398;10.126;2023-04-25T15:48:45;16.95;;;1.95;;
16967;SDS011;64862;54.398;10.126;2023-04-25T15:58:49;11.02;;;1.77;;
16967;SDS011;64862;54.398;10.126;2023-04-25T16:08:55;12.50;;;1.80;;
16967;SDS011;64862;54.398;10.126;2023-04-25T16:18:59;14.55;;;1.70;;
16967;SDS011;64862;54.398;10.126;2023-04-25T16:29:01;9.38;;;1.70;;
16967;SDS011;64862;54.398;10.126;2023-04-25T16:39:06;12.32;;;1.75;;
16967;SDS011;64862;54.398;10.126;2023-04-25T16:49:09;11.40;;;1.75;;
16967;SDS011;64862;54.398;10.126;2023-04-25T16:59:12;11.70;;;1.67;;
16967;SDS011;64862;54.398;10.126;2023-04-25T17:09:14;13.23;;;2.03;;
16967;SDS011;64862;54.398;10.126;2023-04-25T17:19:18;13.95;;;1.63;;
16967;SDS011;64862;54.398;10.126;2023-04-25T17:29:20;11.35;;;1.85;;
16967;SDS011;64862;54.398;10.126;2023-04-25T17:39:25;14.23;;;1.75;;
16967;SDS011;64862;54.398;10.126;2023-04-25T17:49:27;8.07;;;1.35;;
16967;SDS011;64862;54.398;10.126;2023-04-25T17:59:31;8.38;;;1.20;;
16967;SDS011;64862;54.398;10.126;2023-04-25T18:09:33;8.70;;;1.30;;
16967;SDS011;64862;54.398;10.126;2023-04-25T18:19:39;10.15;;;1.33;;
16967;SDS011;64862;54.398;10.126;2023-04-25T18:29:41;9.93;;;1.50;;
16967;SDS011;64862;54.398;10.126;2023-04-25T18:39:46;7.78;;;1.40;;
16967;SDS011;64862;54.398;10.126;2023-04-25T18:49:50;9.80;;;1.10;;
16967;SDS011;64862;54.398;10.126;2023-04-25T18:59:56;11.57;;;1.30;;
16967;SDS011;64862;54.398;10.126;2023-04-25T19:09:58;11.65;;;1.75;;
16967;SDS011;64862;54.398;10.126;2023-04-25T19:20:02;5.75;;;1.20;;
16967;SDS011;64862;54.398;10.126;2023-04-25T19:30:06;9.13;;;1.23;;
16967;SDS011;64862;54.398;10.126;2023-04-25T19:40:12;14.82;;;1.65;;
16967;SDS011;64862;54.398;10.126;2023-04-25T19:50:15;11.55;;;1.23;;
16967;SDS011;64862;54.398;10.126;2023-04-25T20:00:19;12.77;;;1.48;;
16967;SDS011;64862;54.398;10.126;2023-04-25T20:10:21;9.00;;;1.23;;
16967;SDS011;64862;54.398;10.126;2023-04-25T20:20:25;14.90;;;1.38;;
16967;SDS011;64862;54.398;10.126;2023-04-25T20:30:27;13.43;;;1.65;;
16967;SDS011;64862;54.398;10.126;2023-04-25T20:40:32;5.72;;;1.38;;
16967;SDS011;64862;54.398;10.126;2023-04-25T20:50:39;11.47;;;1.70;;
16967;SDS011;64862;54.398;10.126;2023-04-25T21:00:44;10.25;;;1.50;;
16967;SDS011;64862;54.398;10.126;2023-04-25T21:10:48;12.35;;;1.50;;
16967;SDS011;64862;54.398;10.126;2023-04-25T21:20:52;10.30;;;1.08;;
16967;SDS011;64862;54.398;10.126;2023-04-25T21:30:56;11.80;;;1.73;;
16967;SDS011;64862;54.398;10.126;2023-04-25T21:41:00;13.75;;;1.88;;
16967;SDS011;64862;54.398;10.126;2023-04-25T21:51:02;15.77;;;1.33;;
16967;SDS011;64862;54.398;10.126;2023-04-25T22:01:06;15.30;;;2.05;;
16967;SDS011;64862;54.398;10.126;2023-04-25T22:11:09;10.57;;;1.50;;
16967;SDS011;64862;54.398;10.126;2023-04-25T22:21:14;13.13;;;2.10;;
16967;SDS011;64862;54.398;10.126;2023-04-25T22:31:17;14.73;;;1.60;;
16967;SDS011;64862;54.398;10.126;2023-04-25T22:41:20;12.30;;;1.48;;
16967;SDS011;64862;54.398;10.126;2023-04-25T22:51:23;8.98;;;1.50;;
16967;SDS011;64862;54.398;10.126;2023-04-25T23:01:26;11.13;;;1.45;;
16967;SDS011;64862;54.398;10.126;2023-04-25T23:11:29;15.63;;;1.50;;
16967;SDS011;64862;54.398;10.126;2023-04-25T23:21:33;13.57;;;1.38;;
16967;SDS011;64862;54.398;10.126;2023-04-25T23:31:36;7.43;;;1.20;;
16967;SDS011;64862;54.398;10.126;2023-04-25T23:41:40;12.23;;;1.70;;
16967;SDS011;64862;54.398;10.126;2023-04-25T23:51:42;15.15;;;1.98;;
